Genegantslet, New York
Current Conditions -  °F | °C
As of 1:53 AM on Wednesday 22 Oct 2014 (Local Time) from KBGM Reporting Station
Overcast Overcast  
Wind Chill: 45°   Ceiling: 900
Heat Index: 49°   Visibility: 9mi
Dew Point: 47°   Wind: 8mph
Humidity: 93%   Direction: 20°NNE
Pressure: 29.97"   Gusts: NA
Location:  42.3542°N, 75.7469°W
Report Text: KBGM 220553Z AUTO 02007KT 9SM OVC009 09/08 A2997 RMK AO2 CIG 006V011 SLP152 60000 T00940083 10100 20094 58000
Loading
Personal Weather Stations






























Interactive Weather Map New forecast layout! Learn more

10-Day Weather Forecast

Advertisements
Track Severe Weather on mobile